Time;durP1;ratioP1;P1;durP2;ratioP2;P2;SDS_P1;SDS_P2;PMS_P1;PMS_P2;Temp;Humidity;BMP_temperature;BMP_pressure;BME280_temperature;BME280_humidity;BME280_pressure;Samples;Min_cycle;Max_cycle;Signal;HPM_P1;HPM_P2
2020/12/11 00:02:37;;;;;;;17.48;10.63;;;;;;;1.94;86.04;99455.91;5075737;28;20120;-66
2020/12/11 00:05:21;;;;;;;13.13;9.23;;;;;;;1.80;86.76;99449.94;5074557;28;20477;-66
2020/12/11 00:08:08;;;;;;;14.23;9.02;;;;;;;1.67;86.98;99439.47;5074484;28;20102;-67
2020/12/11 00:10:52;;;;;;;14.25;9.77;;;;;;;1.58;87.45;99432.22;5073939;28;20405;-66
2020/12/11 00:13:36;;;;;;;12.68;9.07;;;;;;;1.45;87.86;99420.91;5075329;28;20063;-66
2020/12/11 00:16:21;;;;;;;16.55;9.57;;;;;;;1.36;88.24;99416.31;5074257;28;20147;-68
2020/12/11 00:19:04;;;;;;;9.93;7.18;;;;;;;1.25;88.44;99423.28;5074131;28;20051;-65
2020/12/11 00:21:49;;;;;;;11.93;8.80;;;;;;;1.13;89.41;99409.22;5075058;28;20074;-68
2020/12/11 00:24:32;;;;;;;11.80;8.30;;;;;;;1.02;90.14;99403.84;5074085;28;20455;-68
2020/12/11 00:27:16;;;;;;;;;;;;;;;0.92;91.46;99400.19;5060330;28;20093;-65
2020/12/11 00:30:01;;;;;;;9.43;5.80;;;;;;;0.83;91.41;99406.06;5073935;28;20347;-66
2020/12/11 00:32:45;;;;;;;14.85;9.85;;;;;;;0.74;92.16;99411.09;5074694;28;20083;-67
2020/12/11 00:35:29;;;;;;;13.13;9.18;;;;;;;0.64;92.12;99403.00;5075158;28;20102;-67
2020/12/11 00:38:13;;;;;;;;;;;;;;;0.53;92.91;99389.78;5059854;28;20102;-66
2020/12/11 00:40:57;;;;;;;13.40;9.03;;;;;;;0.49;93.19;99380.44;5074499;28;19920;-67
2020/12/11 00:43:42;;;;;;;16.63;10.10;;;;;;;0.42;93.58;99373.94;5074759;28;20292;-67
2020/12/11 00:46:26;;;;;;;14.63;9.35;;;;;;;0.36;93.91;99374.34;5074409;28;20098;-68
2020/12/11 00:49:10;;;;;;;14.07;9.95;;;;;;;0.31;94.43;99365.94;5074612;28;20123;-67
2020/12/11 00:51:55;;;;;;;13.15;9.27;;;;;;;0.25;95.24;99368.97;5073240;28;20055;-67
2020/12/11 00:54:39;;;;;;;15.45;9.25;;;;;;;0.18;94.89;99375.56;5073177;28;20119;-68
2020/12/11 00:57:22;;;;;;;;;;;;;;;0.13;95.48;99372.41;5074855;28;20440;-65
2020/12/11 01:00:11;;;;;;;18.77;10.73;;;;;;;0.06;95.71;99368.53;5074386;28;19925;-68
2020/12/11 01:02:56;;;;;;;14.35;9.30;;;;;;;0.01;95.98;99367.16;5073606;28;20132;-67
2020/12/11 01:05:40;;;;;;;13.75;8.70;;;;;;;-0.06;96.24;99364.06;5073332;28;20044;-67
2020/12/11 01:08:24;;;;;;;12.85;8.57;;;;;;;-0.10;96.75;99358.31;5073990;28;20093;-68
2020/12/11 01:11:08;;;;;;;16.90;10.65;;;;;;;-0.15;97.18;99355.13;5072819;28;20475;-67
2020/12/11 01:13:52;;;;;;;;;;;;;;;-0.19;97.60;99358.91;5074572;28;20047;-65
2020/12/11 01:16:36;;;;;;;12.80;8.53;;;;;;;-0.21;97.86;99355.53;5074082;28;19919;-68
2020/12/11 01:19:20;;;;;;;13.90;8.77;;;;;;;-0.27;97.63;99355.91;5073813;28;20349;-67
2020/12/11 01:22:04;;;;;;;16.23;9.80;;;;;;;-0.34;97.75;99349.44;5072946;28;20461;-67
2020/12/11 01:24:48;;;;;;;17.00;10.13;;;;;;;-0.38;98.19;99353.16;5073640;28;20056;-67
2020/12/11 01:27:31;;;;;;;16.00;9.63;;;;;;;-0.41;98.94;99348.13;5058787;28;20413;-67
2020/12/11 01:30:16;;;;;;;16.38;9.93;;;;;;;-0.44;99.13;99349.16;5072535;28;20127;-67
2020/12/11 01:33:00;;;;;;;14.77;10.52;;;;;;;-0.44;99.96;99353.56;5072840;28;20051;-67
2020/12/11 01:35:44;;;;;;;16.92;10.27;;;;;;;-0.43;99.99;99339.53;5073807;28;20043;-67
2020/12/11 01:38:28;;;;;;;15.95;10.20;;;;;;;-0.44;99.94;99332.63;5072476;28;20059;-67
2020/12/11 01:41:12;;;;;;;14.27;9.25;;;;;;;-0.46;100.00;99334.47;5072922;28;20133;-68
2020/12/11 01:44:10;;;;;;;14.38;9.07;;;;;;;-0.49;99.93;99324.22;5073754;28;20055;-68
2020/12/11 01:46:57;;;;;;;14.48;9.02;;;;;;;-0.52;99.98;99319.19;5072685;28;20044;-67
2020/12/11 01:49:41;;;;;;;13.63;8.38;;;;;;;-0.51;100.00;99320.84;5072451;28;20109;-67
2020/12/11 01:52:26;;;;;;;13.77;8.95;;;;;;;-0.48;100.00;99320.66;5073260;28;20067;-67
2020/12/11 01:55:10;;;;;;;15.23;9.18;;;;;;;-0.53;100.00;99307.03;5073563;28;20127;-68
2020/12/11 01:58:00;;;;;;;14.65;8.98;;;;;;;-0.56;100.00;99299.34;5073601;28;20123;-67
2020/12/11 02:00:45;;;;;;;11.75;7.88;;;;;;;-0.57;100.00;99302.91;5073503;28;20162;-67
2020/12/11 02:03:29;;;;;;;14.50;8.20;;;;;;;-0.57;100.00;99295.06;5073126;28;20508;-68
2020/12/11 02:06:12;;;;;;;;;;;;;;;-0.59;100.00;99292.56;5072855;28;20101;-67
2020/12/11 02:08:57;;;;;;;11.52;8.00;;;;;;;-0.60;100.00;99300.50;5073130;28;20020;-67
2020/12/11 02:11:41;;;;;;;13.45;8.52;;;;;;;-0.62;100.00;99287.50;5071851;28;20101;-67
2020/12/11 02:14:26;;;;;;;12.55;8.05;;;;;;;-0.65;100.00;99276.44;5072780;28;20051;-67
2020/12/11 02:17:10;;;;;;;14.77;8.40;;;;;;;-0.65;100.00;99276.44;5072261;28;20098;-67
2020/12/11 02:19:55;;;;;;;12.82;8.02;;;;;;;-0.68;100.00;99261.75;5073481;28;20051;-67
2020/12/11 02:22:41;;;;;;;12.00;8.38;;;;;;;-0.69;100.00;99265.31;5072081;28;20093;-67
2020/12/11 02:25:25;;;;;;;13.88;8.55;;;;;;;-0.71;100.00;99259.34;5072965;28;20082;-68
2020/12/11 02:28:09;;;;;;;;;;;;;;;-0.71;100.00;99258.47;5073616;28;20098;-68
2020/12/11 02:30:56;;;;;;;16.08;10.45;;;;;;;-0.69;100.00;99254.00;5072811;28;20038;-68
2020/12/11 02:33:40;;;;;;;16.25;10.10;;;;;;;-0.66;100.00;99253.81;5072129;28;20120;-68
2020/12/11 02:36:24;;;;;;;;;;;;;;;-0.65;100.00;99264.16;5072568;28;20051;-68
2020/12/11 02:39:09;;;;;;;13.40;8.10;;;;;;;-0.65;100.00;99256.31;5072833;28;19923;-68
2020/12/11 02:41:53;;;;;;;14.68;9.52;;;;;;;-0.68;100.00;99260.91;5071720;28;20044;-68
2020/12/11 02:44:37;;;;;;;17.13;9.88;;;;;;;-0.72;100.00;99262.88;5072701;28;20417;-67
2020/12/11 02:47:21;;;;;;;;;;;;;;;-0.74;100.00;99262.13;5072278;28;20101;-68
2020/12/11 02:50:06;;;;;;;15.25;9.02;;;;;;;-0.74;100.00;99254.28;5071947;28;19919;-67
2020/12/11 02:52:50;;;;;;;18.38;9.75;;;;;;;-0.75;100.00;99249.16;5071640;28;20043;-67
2020/12/11 02:55:35;;;;;;;16.65;10.25;;;;;;;-0.73;100.00;99247.28;5071949;28;20056;-68
2020/12/11 02:58:19;;;;;;;;;;;;;;;-0.73;100.00;99247.28;5058136;28;20531;-67
2020/12/11 03:01:02;;;;;;;17.90;9.73;;;;;;;-0.72;100.00;99238.50;5072632;28;20284;-67
2020/12/11 03:03:46;;;;;;;16.23;10.35;;;;;;;-0.71;100.00;99221.84;5072799;28;20324;-68
2020/12/11 03:06:31;;;;;;;19.13;10.68;;;;;;;-0.70;100.00;99210.44;5072579;28;20102;-68
2020/12/11 03:09:15;;;;;;;17.55;10.70;;;;;;;-0.69;100.00;99210.34;5072692;28;20094;-66
2020/12/11 03:11:59;;;;;;;17.80;10.70;;;;;;;-0.67;100.00;99205.84;5173954;22;20046;-68
2020/12/11 03:14:43;;;;;;;15.07;9.30;;;;;;;-0.66;100.00;99201.47;5057311;28;20177;-68
2020/12/11 03:17:27;;;;;;;18.88;9.18;;;;;;;-0.64;100.00;99189.94;5071578;28;20047;-68
2020/12/11 03:20:12;;;;;;;14.82;9.43;;;;;;;-0.63;100.00;99185.56;5071693;28;20089;-68
2020/12/11 03:22:56;;;;;;;13.68;9.27;;;;;;;-0.65;100.00;99176.97;5072375;28;20054;-68
2020/12/11 03:25:40;;;;;;;13.40;8.70;;;;;;;-0.65;100.00;99163.91;5071924;28;20117;-68
2020/12/11 03:28:25;;;;;;;14.18;8.93;;;;;;;-0.65;100.00;99156.03;5076030;28;20463;-68
2020/12/11 03:31:09;;;;;;;16.55;9.88;;;;;;;-0.63;100.00;99157.59;5075864;28;20051;-69
2020/12/11 03:33:52;;;;;;;14.45;9.20;;;;;;;-0.62;100.00;99155.84;5060742;28;20055;-68
2020/12/11 03:36:37;;;;;;;13.07;8.38;;;;;;;-0.61;100.00;99149.66;5075339;28;20519;-67
2020/12/11 03:39:21;;;;;;;14.63;9.25;;;;;;;-0.61;100.00;99147.88;5075881;28;20475;-68
2020/12/11 03:42:05;;;;;;;14.35;9.52;;;;;;;-0.62;100.00;99142.75;5074873;28;20056;-68
2020/12/11 03:44:48;;;;;;;15.40;9.02;;;;;;;-0.61;100.00;99136.56;5074810;28;20043;-68
2020/12/11 03:47:33;;;;;;;12.95;8.88;;;;;;;-0.60;100.00;99140.84;5074617;28;20467;-68
2020/12/11 03:50:17;;;;;;;16.13;10.15;;;;;;;-0.61;100.00;99132.19;5074834;28;20052;-68
2020/12/11 03:53:02;;;;;;;15.75;9.10;;;;;;;-0.56;100.00;99131.84;5075423;28;20055;-68
2020/12/11 03:55:46;;;;;;;14.68;9.13;;;;;;;-0.56;100.00;99129.22;5074717;28;20055;-68
2020/12/11 03:58:30;;;;;;;13.90;8.65;;;;;;;-0.54;100.00;99127.38;5075396;28;20048;-68
2020/12/11 04:01:15;;;;;;;14.15;8.85;;;;;;;-0.55;100.00;99120.47;5060258;28;20047;-68
2020/12/11 04:03:59;;;;;;;13.77;8.40;;;;;;;-0.55;100.00;99110.00;5075524;28;20496;-67
2020/12/11 04:06:43;;;;;;;13.90;8.82;;;;;;;-0.56;100.00;99126.63;5075207;28;20051;-68
2020/12/11 04:09:27;;;;;;;12.10;8.13;;;;;;;-0.58;100.00;99120.66;5074233;28;20052;-68
2020/12/11 04:12:12;;;;;;;14.82;9.60;;;;;;;-0.62;100.00;99117.41;5074982;28;20512;-67
2020/12/11 04:14:56;;;;;;;17.73;9.73;;;;;;;-0.64;100.00;99115.84;5075339;28;20065;-68
2020/12/11 04:17:41;;;;;;;14.57;9.00;;;;;;;-0.68;100.00;99114.34;5075084;28;20055;-68
2020/12/11 04:20:25;;;;;;;12.57;8.40;;;;;;;-0.73;100.00;99111.22;5073946;28;20094;-68
2020/12/11 04:23:09;;;;;;;14.45;9.48;;;;;;;-0.78;100.00;99108.06;5073756;28;20528;-67
2020/12/11 04:25:54;;;;;;;15.90;9.60;;;;;;;-0.84;100.00;99098.03;5073846;28;20093;-68
2020/12/11 04:28:39;;;;;;;14.30;9.13;;;;;;;-0.89;100.00;99100.09;5074126;28;20078;-68
2020/12/11 04:31:23;;;;;;;15.48;9.65;;;;;;;-0.93;100.00;99088.97;5060115;28;20047;-67
2020/12/11 04:34:07;;;;;;;;;;;;;;;-0.98;100.00;99087.63;5074404;28;20059;-68
2020/12/11 04:36:53;;;;;;;14.35;9.05;;;;;;;-1.02;100.00;99083.53;5074179;28;19978;-68
2020/12/11 04:39:37;;;;;;;14.48;9.43;;;;;;;-1.08;100.00;99089.16;5074574;28;20086;-68
2020/12/11 04:42:22;;;;;;;15.10;9.00;;;;;;;-1.14;100.00;99094.81;5074768;28;20086;-68
2020/12/11 04:45:06;;;;;;;14.52;8.00;;;;;;;-1.19;100.00;99091.63;5073967;28;20512;-67
2020/12/11 04:47:50;;;;;;;15.68;9.60;;;;;;;-1.22;100.00;99091.84;5074396;28;20051;-67
2020/12/11 04:50:35;;;;;;;16.25;8.77;;;;;;;-1.26;100.00;99074.69;5074577;28;20133;-68
2020/12/11 04:53:24;;;;;;;17.38;9.57;;;;;;;-1.30;100.00;99063.59;5059193;28;20040;-68
2020/12/11 04:56:10;;;;;;;15.05;9.23;;;;;;;-1.32;100.00;99062.88;5073470;28;20123;-67
2020/12/11 04:58:55;;;;;;;15.48;9.85;;;;;;;-1.35;100.00;99049.16;5073491;28;20078;-68
2020/12/11 05:01:39;;;;;;;13.57;9.13;;;;;;;-1.38;100.00;99044.09;5074101;28;20052;-68
2020/12/11 05:04:23;;;;;;;;;;;;;;;-1.41;100.00;99047.78;5073749;28;20054;-68
2020/12/11 05:07:07;;;;;;;11.45;6.65;;;;;;;-1.41;100.00;99044.31;5074106;28;19997;-68
2020/12/11 05:09:55;;;;;;;17.20;9.60;;;;;;;-1.43;100.00;99035.72;5074286;28;20244;-68
2020/12/11 05:12:39;;;;;;;16.02;9.57;;;;;;;-1.45;100.00;99033.22;5074055;28;20519;-68
2020/12/11 05:15:23;;;;;;;15.05;9.43;;;;;;;-1.47;100.00;99023.81;5074013;28;20063;-68
2020/12/11 05:18:15;;;;;;;;;;;;;;;-1.46;100.00;99030.72;5073505;28;20102;-68
2020/12/11 05:21:20;;;;;;;15.95;9.70;;;;;;;-1.49;100.00;99020.44;5073026;28;19919;-68
2020/12/11 05:24:05;;;;;;;17.55;10.05;;;;;;;-1.54;100.00;99025.97;5072597;28;20416;-68
2020/12/11 05:26:49;;;;;;;16.95;9.82;;;;;;;-1.54;100.00;99027.75;5072690;28;20047;-68
2020/12/11 05:29:34;;;;;;;17.50;8.95;;;;;;;-1.55;100.00;99031.31;5073841;28;20082;-67
2020/12/11 05:32:38;;;;;;;15.27;9.45;;;;;;;-1.58;100.00;99026.28;5072657;28;20051;-68
2020/12/11 05:35:28;;;;;;;16.30;9.45;;;;;;;-1.61;100.00;99027.31;5073794;28;20047;-67
2020/12/11 05:38:12;;;;;;;13.73;8.45;;;;;;;-1.62;100.00;99016.97;5072425;28;20043;-68
2020/12/11 05:40:56;;;;;;;17.70;10.35;;;;;;;-1.60;100.00;99013.31;5072368;28;20416;-68
2020/12/11 05:43:41;;;;;;;16.40;10.18;;;;;;;-1.55;100.00;98994.72;5073721;28;20086;-66
2020/12/11 05:46:31;;;;;;;18.52;10.50;;;;;;;-1.53;100.00;99000.69;5072396;28;20059;-68
2020/12/11 05:49:45;;;;;;;18.98;11.10;;;;;;;-1.48;100.00;98991.59;5071795;28;20456;-67
2020/12/11 05:52:29;;;;;;;18.92;10.55;;;;;;;-1.39;100.00;98983.16;5067054;28;20048;-67
2020/12/11 05:55:17;;;;;;;19.73;10.55;;;;;;;-1.28;100.00;98996.34;5073287;28;20101;-67
2020/12/11 05:58:01;;;;;;;15.35;9.02;;;;;;;-1.18;100.00;98980.88;5072480;28;20059;-67
2020/12/11 06:00:46;;;;;;;15.07;9.38;;;;;;;-1.12;100.00;98972.63;5072220;28;20047;-68
2020/12/11 06:03:30;;;;;;;16.08;9.88;;;;;;;-1.04;100.00;98975.59;5073334;28;20075;-68
2020/12/11 06:06:16;;;;;;;13.93;8.25;;;;;;;-0.95;100.00;98959.28;5073130;28;20052;-67
2020/12/11 06:09:01;;;;;;;13.82;9.27;;;;;;;-0.86;100.00;98948.19;5058353;28;20554;-68
2020/12/11 06:11:47;;;;;;;21.08;11.00;;;;;;;-0.76;100.00;98939.56;5057824;28;20056;-68
2020/12/11 06:14:39;;;;;;;17.77;10.35;;;;;;;-0.63;100.00;98939.56;5072378;28;20066;-68
2020/12/11 06:17:24;;;;;;;16.40;9.90;;;;;;;-0.57;100.00;98934.75;5072060;28;20043;-68
2020/12/11 06:20:09;;;;;;;18.63;10.70;;;;;;;-0.47;100.00;98937.53;5057968;28;20097;-67
2020/12/11 06:22:53;;;;;;;17.55;9.55;;;;;;;-0.43;100.00;98942.44;5071886;28;20557;-68
2020/12/11 06:25:38;;;;;;;15.85;8.63;;;;;;;-0.39;100.00;98937.84;5072206;28;20098;-68
2020/12/11 06:28:45;;;;;;;17.10;9.57;;;;;;;-0.29;100.00;98938.84;5073156;28;20098;-67
2020/12/11 06:31:45;;;;;;;19.65;9.40;;;;;;;-0.23;100.00;98936.63;5071673;28;20132;-67
2020/12/11 06:34:29;;;;;;;20.40;11.18;;;;;;;-0.12;100.00;98918.38;5072096;28;20066;-68
2020/12/11 06:37:13;;;;;;;19.20;11.77;;;;;;;-0.06;100.00;98925.78;5071809;28;20174;-67
2020/12/11 06:39:57;;;;;;;18.63;11.30;;;;;;;-0.01;100.00;98927.13;5072963;28;20119;-68
2020/12/11 06:42:42;;;;;;;16.40;10.18;;;;;;;0.04;100.00;98914.53;5072984;28;20055;-68
2020/12/11 06:45:29;;;;;;;19.17;10.70;;;;;;;0.08;100.00;98907.28;5071794;28;20047;-67
2020/12/11 06:48:13;;;;;;;15.52;9.52;;;;;;;0.16;100.00;98916.28;5071898;28;20098;-68
2020/12/11 06:51:04;;;;;;;18.48;11.10;;;;;;;0.18;100.00;98914.38;5072110;28;20048;-67
2020/12/11 06:53:48;;;;;;;16.98;10.68;;;;;;;0.25;100.00;98905.09;5072688;28;20039;-67
2020/12/11 06:56:45;;;;;;;15.45;9.98;;;;;;;0.27;100.00;98907.59;5071861;28;20420;-68
2020/12/11 06:59:36;;;;;;;19.02;10.82;;;;;;;0.31;100.00;98899.41;5071783;28;20110;-68
2020/12/11 07:02:20;;;;;;;15.35;10.18;;;;;;;0.33;100.00;98905.34;5073372;28;20047;-68
2020/12/11 07:05:04;;;;;;;16.67;10.60;;;;;;;0.39;100.00;98904.06;5076186;28;20046;-68
2020/12/11 07:07:48;;;;;;;16.33;10.35;;;;;;;0.47;100.00;98910.44;5076260;28;20097;-67
2020/12/11 07:10:32;;;;;;;16.35;10.75;;;;;;;0.53;99.92;98899.47;5076254;28;20058;-68
2020/12/11 07:13:15;;;;;;;15.48;10.57;;;;;;;0.55;99.79;98900.19;5060975;28;20116;-68
2020/12/11 07:16:04;;;;;;;17.30;10.82;;;;;;;0.57;99.95;98906.19;5076327;28;20127;-67
2020/12/11 07:18:48;;;;;;;14.10;9.63;;;;;;;0.59;99.52;98904.25;5075377;28;20083;-68
2020/12/11 07:21:33;;;;;;;14.60;10.13;;;;;;;0.67;99.60;98907.16;5076172;28;20098;-68
2020/12/11 07:24:17;;;;;;;15.65;10.07;;;;;;;0.72;99.62;98901.56;5075930;28;20504;-67
2020/12/11 07:27:05;;;;;;;18.85;10.35;;;;;;;0.73;99.02;98905.84;5075268;28;20056;-67
2020/12/11 07:29:50;;;;;;;19.75;10.48;;;;;;;0.78;98.68;98899.31;5074982;28;20077;-68
2020/12/11 07:32:35;;;;;;;16.42;9.98;;;;;;;0.87;98.38;98898.63;5076066;28;20079;-68
2020/12/11 07:35:20;;;;;;;15.32;10.48;;;;;;;0.90;98.43;98903.63;5074775;28;20043;-68
2020/12/11 07:38:05;;;;;;;15.10;10.07;;;;;;;0.93;98.26;98902.56;5074822;28;20043;-68
2020/12/11 07:40:56;;;;;;;14.38;10.10;;;;;;;0.99;97.81;98913.41;5074720;28;20555;-67
2020/12/11 07:43:47;;;;;;;14.13;9.02;;;;;;;1.00;97.55;98909.81;5074903;28;20047;-68
2020/12/11 07:46:31;;;;;;;15.40;10.13;;;;;;;1.02;97.46;98905.28;5074831;28;20093;-68
2020/12/11 07:49:15;;;;;;;15.45;10.30;;;;;;;1.05;97.19;98902.41;5075759;28;20488;-67
2020/12/11 07:51:59;;;;;;;18.40;10.95;;;;;;;1.07;97.16;98897.88;5060511;28;20056;-68
2020/12/11 07:54:44;;;;;;;19.52;11.80;;;;;;;1.12;97.69;98887.03;5075730;28;20095;-67
2020/12/11 07:57:28;;;;;;;16.75;11.13;;;;;;;1.17;97.29;98879.66;5074731;28;20124;-68
2020/12/11 08:00:12;;;;;;;15.48;11.18;;;;;;;1.24;96.74;98880.84;5074524;28;20420;-68
2020/12/11 08:02:57;;;;;;;17.50;10.57;;;;;;;1.35;96.19;98871.16;5074245;28;20576;-68
2020/12/11 08:05:41;;;;;;;15.48;10.77;;;;;;;1.44;95.64;98862.56;5074494;28;20084;-68
2020/12/11 08:08:25;;;;;;;;;;;;;;;1.53;93.72;98861.84;5075666;28;20581;-68
2020/12/11 08:11:23;;;;;;;17.55;10.77;;;;;;;1.62;93.55;98861.13;5074999;28;20284;-68
2020/12/11 08:14:08;;;;;;;17.92;11.88;;;;;;;1.69;93.14;98857.03;5073852;28;20043;-68
2020/12/11 08:16:52;;;;;;;19.48;12.50;;;;;;;1.81;92.88;98856.06;5074085;28;20094;-68
2020/12/11 08:19:36;;;;;;;20.15;13.27;;;;;;;1.93;92.14;98856.84;5075649;28;20042;-68
2020/12/11 08:22:20;;;;;;;17.85;12.18;;;;;;;2.00;91.25;98855.38;5060253;28;20524;-68
2020/12/11 08:25:17;;;;;;;17.33;11.23;;;;;;;2.09;90.95;98854.63;5074730;28;20569;-68
2020/12/11 08:28:07;;;;;;;19.50;11.90;;;;;;;2.18;89.97;98849.44;5075009;28;20083;-68
2020/12/11 08:30:52;;;;;;;16.83;11.07;;;;;;;2.20;88.66;98847.56;5074496;28;20186;-69
2020/12/11 08:33:36;;;;;;;16.98;11.77;;;;;;;2.21;88.90;98845.75;5059462;28;20048;-68
2020/12/11 08:36:21;;;;;;;19.77;12.05;;;;;;;2.17;88.72;98839.91;5059763;28;20416;-68
2020/12/11 08:39:19;;;;;;;18.42;11.38;;;;;;;2.19;88.61;98850.28;5074863;28;20179;-68
2020/12/11 08:42:13;;;;;;;20.42;12.73;;;;;;;2.19;89.30;98851.13;5074588;28;20040;-68
2020/12/11 08:53:25;;;;;;;16.80;10.68;;;;;;;2.21;90.00;98837.84;5073239;28;20043;-68
2020/12/11 08:56:08;;;;;;;20.08;11.73;;;;;;;2.19;89.24;98851.13;5074272;28;20083;-68
2020/12/11 08:58:52;;;;;;;15.63;10.93;;;;;;;2.21;89.62;98848.38;5059642;28;20105;-68
2020/12/11 09:01:40;;;;;;;16.67;11.23;;;;;;;2.29;89.89;98845.94;5073297;28;20056;-68
2020/12/11 09:04:24;;;;;;;16.35;10.95;;;;;;;2.35;90.28;98848.03;5073029;28;20047;-68
2020/12/11 09:07:11;;;;;;;17.65;11.45;;;;;;;2.40;89.38;98849.34;5073960;28;20085;-68
2020/12/11 09:09:55;;;;;;;18.45;11.45;;;;;;;2.47;88.98;98841.78;5072753;28;20075;-67
2020/12/11 09:12:38;;;;;;;17.65;11.50;;;;;;;2.50;88.38;98839.72;5085285;22;20090;-67
2020/12/11 09:15:22;;;;;;;21.10;14.63;;;;;;;2.53;88.42;98835.03;5073211;28;20071;-67
2020/12/11 09:18:07;;;;;;;22.05;13.13;;;;;;;2.57;88.40;98830.34;5073986;28;20055;-67
2020/12/11 09:20:51;;;;;;;19.60;12.70;;;;;;;2.59;87.75;98833.69;5072774;28;20504;-67
2020/12/11 09:23:34;;;;;;;22.02;12.80;;;;;;;2.66;87.62;98845.38;5073371;28;20048;-67
2020/12/11 09:26:18;;;;;;;17.92;11.88;;;;;;;2.71;87.69;98828.22;5072449;28;20052;-67
2020/12/11 09:29:11;;;;;;;20.77;13.48;;;;;;;2.81;87.58;98831.75;5058781;28;20052;-67
2020/12/11 09:32:00;;;;;;;20.92;13.75;;;;;;;2.93;86.94;98840.41;5072700;28;20052;-67
2020/12/11 09:34:45;;;;;;;25.63;15.18;;;;;;;3.02;86.88;98843.06;5073817;28;20087;-67
2020/12/11 09:37:29;;;;;;;23.23;14.82;;;;;;;3.08;86.28;98833.81;5073826;28;20049;-67
2020/12/11 09:40:13;;;;;;;22.00;13.75;;;;;;;3.09;85.54;98838.09;5073769;28;20054;-67
2020/12/11 09:54:31;;;;;;;23.92;15.40;;;;;;;3.16;84.58;98807.66;5073440;28;20048;-67
2020/12/11 09:57:15;;;;;;;29.48;19.08;;;;;;;3.12;84.50;98790.47;5073248;28;20137;-67
2020/12/11 10:00:02;;;;;;;22.77;12.93;;;;;;;3.12;84.97;98795.75;5072574;28;20070;-67
2020/12/11 10:03:02;;;;;;;20.20;12.63;;;;;;;3.11;85.23;98801.94;5073063;28;20100;-67
2020/12/11 10:05:45;;;;;;;19.08;12.30;;;;;;;3.14;85.27;98783.28;5073427;28;20047;-67
2020/12/11 10:08:30;;;;;;;23.80;13.55;;;;;;;3.12;84.63;98779.94;5072117;28;20416;-67
2020/12/11 10:11:19;;;;;;;19.02;13.23;;;;;;;3.18;84.54;98768.88;5073356;28;20063;-67
2020/12/11 10:17:05;;;;;;;17.50;12.00;;;;;;;3.19;83.83;98788.97;5072630;28;20051;-67
2020/12/11 10:19:50;;;;;;;23.05;12.85;;;;;;;3.17;84.79;98769.84;5072325;28;20428;-67
2020/12/11 10:22:34;;;;;;;19.98;12.95;;;;;;;3.21;85.05;98773.84;5073314;28;20154;-67
2020/12/11 10:25:18;;;;;;;19.40;11.88;;;;;;;3.19;83.69;98754.72;5072081;28;20040;-67
2020/12/11 10:28:02;;;;;;;20.42;12.48;;;;;;;3.29;83.97;98766.13;5072162;28;20056;-67
2020/12/11 10:30:46;;;;;;;21.10;12.35;;;;;;;3.38;83.52;98739.81;5072992;28;20097;-67
2020/12/11 10:33:30;;;;;;;17.42;12.02;;;;;;;3.58;82.97;98724.84;5071909;28;20047;-67
2020/12/11 10:36:13;;;;;;;27.27;16.83;;;;;;;3.65;82.68;98716.25;5074028;28;20075;-67
2020/12/11 10:38:58;;;;;;;22.02;12.48;;;;;;;3.79;83.36;98699.19;5076979;28;20136;-67
2020/12/11 10:41:42;;;;;;;22.95;12.93;;;;;;;3.89;84.00;98689.47;5077027;28;20409;-67
2020/12/11 10:44:27;;;;;;;18.80;11.82;;;;;;;3.97;84.43;98697.53;5076989;28;20060;-67
2020/12/11 10:47:11;;;;;;;20.65;12.15;;;;;;;4.07;83.06;98703.63;5076505;28;20044;-67
2020/12/11 10:49:55;;;;;;;17.38;12.10;;;;;;;4.20;81.62;98704.13;5075965;28;20503;-67
2020/12/11 10:52:41;;;;;;;20.42;12.80;;;;;;;4.36;80.77;98684.09;5076772;28;20408;-67
2020/12/11 10:55:28;;;;;;;18.23;11.88;;;;;;;4.58;79.59;98682.91;5076889;28;20098;-67
2020/12/11 10:58:12;;;;;;;20.55;12.63;;;;;;;4.78;78.57;98697.69;5076884;28;20075;-67
2020/12/11 11:00:56;;;;;;;16.35;11.15;;;;;;;5.29;77.19;98683.78;5076755;28;20451;-67
2020/12/11 11:03:41;;;;;;;17.40;12.05;;;;;;;5.86;74.24;98664.03;5076368;28;20482;-67
2020/12/11 11:06:32;;;;;;;17.52;11.70;;;;;;;6.64;71.11;98654.09;5076306;28;20515;-68
2020/12/11 11:12:29;;;;;;;21.25;13.02;;;;;;;8.52;62.21;98621.13;5075198;28;20051;-67
2020/12/11 11:18:16;;;;;;;15.88;10.57;;;;;;;12.96;49.13;98600.16;5076404;28;20769;-66
2020/12/11 11:29:47;;;;;;;17.42;11.88;;;;;;;11.66;49.13;98588.50;5076481;28;20451;-68
2020/12/11 11:32:30;;;;;;;15.88;11.75;;;;;;;11.07;49.85;98589.69;5075868;28;20047;-66
2020/12/11 11:35:14;;;;;;;17.40;11.02;;;;;;;11.10;50.99;98580.50;5076061;28;20098;-67
2020/12/11 11:37:58;;;;;;;14.63;11.30;;;;;;;10.91;52.02;98579.28;5075765;28;20468;-67
2020/12/11 11:40:43;;;;;;;16.95;11.85;;;;;;;10.72;52.76;98582.50;5075996;28;20083;-67
2020/12/11 11:43:54;;;;;;;15.23;11.40;;;;;;;10.17;53.57;98585.81;5074561;28;20098;-67
2020/12/11 11:46:38;;;;;;;16.38;12.48;;;;;;;9.49;55.90;98585.88;5075596;28;20055;-67
2020/12/11 11:49:28;;;;;;;16.17;11.65;;;;;;;9.06;57.25;98589.16;5074610;28;20408;-67
2020/12/11 11:55:06;;;;;;;21.75;13.15;;;;;;;7.83;61.74;98584.56;5075712;28;20043;-66
2020/12/11 11:57:50;;;;;;;21.13;12.80;;;;;;;7.44;63.39;98580.13;5074438;28;20094;-66
2020/12/11 12:00:34;;;;;;;20.23;12.75;;;;;;;7.08;64.12;98578.75;5075520;28;20131;-66
2020/12/11 12:03:18;;;;;;;21.58;13.32;;;;;;;6.61;65.82;98580.28;5074237;28;20054;-66
2020/12/11 12:06:05;;;;;;;18.38;12.48;;;;;;;6.24;67.28;98587.72;5060365;28;20051;-67
2020/12/11 12:08:49;;;;;;;18.17;12.25;;;;;;;5.88;69.62;98580.91;5074214;28;20098;-67
2020/12/11 12:11:33;;;;;;;19.83;12.88;;;;;;;5.78;69.73;98582.78;5074402;28;20054;-67
2020/12/11 12:14:17;;;;;;;25.20;13.88;;;;;;;5.66;71.69;98568.16;5075352;28;20047;-67
2020/12/11 12:17:04;;;;;;;;;;;;;;;5.47;71.70;98575.44;5075477;28;20089;-66
2020/12/11 12:19:50;;;;;;;18.60;12.27;;;;;;;5.38;72.70;98579.00;5075272;28;19919;-67
2020/12/11 12:31:40;;;;;;;18.40;12.23;;;;;;;5.00;73.73;98561.66;5074028;28;20047;-66
2020/12/11 12:37:31;;;;;;;17.98;11.40;;;;;;;4.90;75.34;98562.69;5074847;28;20047;-66
2020/12/11 12:40:36;;;;;;;19.95;12.68;;;;;;;4.85;75.57;98549.13;5074733;28;20141;-66
2020/12/11 12:43:24;;;;;;;19.38;11.75;;;;;;;4.78;76.08;98544.59;5074394;28;20039;-66
2020/12/11 12:46:08;;;;;;;21.65;11.88;;;;;;;4.69;75.58;98535.75;5074502;28;20063;-66
2020/12/11 12:48:52;;;;;;;17.27;12.20;;;;;;;4.71;75.74;98546.16;5073458;28;20471;-67
2020/12/11 12:51:36;;;;;;;17.15;11.57;;;;;;;4.64;76.83;98531.91;5073566;28;20082;-67
2020/12/11 12:54:21;;;;;;;16.58;11.32;;;;;;;4.50;77.94;98530.63;5073425;28;20576;-66
2020/12/11 12:57:12;;;;;;;15.57;10.38;;;;;;;4.50;78.10;98524.50;5073537;28;20047;-66
2020/12/11 13:00:07;;;;;;;16.63;10.55;;;;;;;4.58;78.69;98532.50;5074204;28;20158;-66
2020/12/11 13:03:30;;;;;;;16.17;10.82;;;;;;;4.73;78.10;98541.56;5073165;28;20046;-67
2020/12/11 13:06:01;;;;;;;21.25;12.48;;;;;;;4.70;77.62;98536.59;5073795;28;20451;-66
2020/12/11 13:08:45;;;;;;;18.67;12.77;;;;;;;4.64;78.17;98539.81;5074014;28;20055;-67
2020/12/11 13:11:29;;;;;;;;;;;;;;;4.55;78.09;98551.25;5074900;28;20063;-66
2020/12/11 13:14:13;;;;;;;18.85;11.88;;;;;;;4.45;78.90;98527.59;5072889;28;20388;-65
2020/12/11 13:16:57;;;;;;;22.35;12.48;;;;;;;4.43;78.93;98533.97;5074082;28;20173;-65
2020/12/11 13:19:41;;;;;;;17.83;11.98;;;;;;;4.43;78.78;98547.16;5073993;28;20167;-66
2020/12/11 13:22:32;;;;;;;19.95;12.13;;;;;;;4.07;79.81;98569.16;5072964;28;20102;-65
2020/12/11 13:26:12;;;;;;;20.33;12.23;;;;;;;4.02;81.84;98563.47;5073858;28;20048;-66
2020/12/11 13:28:24;;;;;;;20.50;11.65;;;;;;;3.96;83.57;98553.50;5073241;28;20515;-65
2020/12/11 13:31:08;;;;;;;19.35;11.48;;;;;;;3.96;82.66;98540.31;5073500;28;20092;-65
2020/12/11 13:33:52;;;;;;;18.63;11.93;;;;;;;3.93;83.38;98537.97;5058563;28;20464;-66
2020/12/11 13:36:36;;;;;;;21.70;12.55;;;;;;;3.98;83.76;98517.28;5072932;28;20397;-66
2020/12/11 13:39:21;;;;;;;19.90;11.80;;;;;;;3.97;84.43;98526.97;5072636;28;20112;-66
2020/12/11 13:42:05;;;;;;;16.30;11.45;;;;;;;4.01;83.78;98514.34;5073836;28;20055;-66
2020/12/11 13:44:49;;;;;;;19.75;11.48;;;;;;;4.03;83.83;98499.22;5072654;28;20089;-66
2020/12/11 13:47:33;;;;;;;15.65;10.60;;;;;;;4.00;82.87;98504.78;5073491;28;20051;-66